DW4338 Bergen NO current weather conditions

sailwx.info

Wind from 096

Air temperature 4.4° C
Dewpoint 1.5° C

Last reported at 2014-Nov-27 17:38 UTC.
Time now 2014-Nov-27 18:23 UTC

Location: N 60°31' E 004°54'.
View on Google Maps.

See reports from other nearby stations

  
Tides and Currents Weather Stations Pressure Air Temp Water Temp Dewpoint Dewpoint Depression Visibility Wind Speed Wind Dir Waves Ship Positions
date/time (UTC)wind fromknots sea level pressurealtimeterstation pressurevisibilityair tempwater tempwave heightnotes
2014-Nov-27 17:38 096 4.4
2014-Nov-27 17:23 096 4.4
2014-Nov-27 16:53 096 4 gusting 8 4.4
2014-Nov-27 16:38 096 5 gusting 10 4.4
2014-Nov-27 16:22 096 5 gusting 13 5.0
2014-Nov-27 16:07 096 6 gusting 8 5.0
2014-Nov-27 15:37 096 5.0
2014-Nov-27 15:22 096 5 gusting 7 5.0
2014-Nov-27 15:07 096 2 gusting 6 5.0
2014-Nov-27 14:52 096 2 gusting 6 5.6
2014-Nov-27 14:36 096 5.6
2014-Nov-27 14:21 096 2 gusting 5 5.6
2014-Nov-27 14:06 096 1 gusting 5 5.6
2014-Nov-27 13:51 096 6.1
2014-Nov-27 13:36 096 6.1
2014-Nov-27 13:21 096 6.7
2014-Nov-27 13:05 096 6.7
2014-Nov-27 12:50 096 7.2
2014-Nov-27 12:35 096 7.2
2014-Nov-27 12:20 096 7.2
2014-Nov-27 12:05 096 6.7
2014-Nov-27 11:50 096 6.7
2014-Nov-27 11:34 096 6.1
2014-Nov-27 11:19 096 6.1
2014-Nov-27 11:04 096 6.1
2014-Nov-27 10:49 096 6.1
2014-Nov-27 10:35 096 6.1
2014-Nov-27 10:20 096 6.1
2014-Nov-27 10:04 096 6.1
2014-Nov-27 09:48 096 5.6
2014-Nov-27 09:33 096 5.6
2014-Nov-27 09:18 096 5.6
2014-Nov-27 09:03 096 5.6
2014-Nov-27 08:47 096 5.6
2014-Nov-27 08:33 096 2 gusting 6 5.6
2014-Nov-27 08:17 096 5.0
2014-Nov-27 08:03 103 5.0
2014-Nov-27 07:47 103 2 gusting 6 5.0
2014-Nov-27 07:32 103 5.0
2014-Nov-27 07:17 103 1 gusting 5 5.0
2014-Nov-27 07:02 103 5.0
2014-Nov-27 06:46 103 2 gusting 8 4.4
2014-Nov-27 06:31 103 4 gusting 9 4.4
2014-Nov-27 06:16 103 4.4
2014-Nov-27 06:01 103 0 gusting 8 5.0
2014-Nov-27 05:45 103 5 gusting 12 5.0
2014-Nov-27 05:31 103 7 gusting 19 5.0
2014-Nov-27 05:16 103 6 gusting 11 5.0
2014-Nov-27 05:00 103 5.0
2014-Nov-27 04:45 103 5.0
2014-Nov-27 04:30 103 5.0
2014-Nov-27 04:16 103 1 gusting 6 5.0
2014-Nov-27 04:00 103 3 gusting 9 5.0
2014-Nov-27 03:46 103 6 gusting 9 5.0
2014-Nov-27 03:29 103 6 gusting 9 5.0
2014-Nov-27 03:14 103 6 gusting 11 5.6
2014-Nov-27 02:59 103 1 gusting 9 5.6
2014-Nov-27 02:44 103 0 gusting 10 5.6
2014-Nov-27 02:29 103 4 gusting 8 5.6
2014-Nov-27 02:13 103 4 gusting 9 5.6
2014-Nov-27 01:58 103 5.6
2014-Nov-27 01:43 103 1 gusting 8 5.6
2014-Nov-27 01:28 103 3 gusting 9 5.6
2014-Nov-27 01:13 103 5 gusting 9 5.6
2014-Nov-27 00:57 103 3 gusting 9 5.6
2014-Nov-27 00:42 103 3 gusting 11 5.6
2014-Nov-27 00:27 103 3 gusting 8 6.1
2014-Nov-27 00:12 103 6.1
2014-Nov-26 23:57 103 1 gusting 8 6.1
2014-Nov-26 23:42 103 3 gusting 11 6.1
2014-Nov-26 23:27 103 5 gusting 13 6.1
2014-Nov-26 23:11 103 8 gusting 14 6.1
2014-Nov-26 22:56 103 7 gusting 13 6.1
2014-Nov-26 22:41 104 13 gusting 20 6.7
2014-Nov-26 22:26 110 11 gusting 15 6.7
2014-Nov-26 22:11 128 12 gusting 19 6.7
2014-Nov-26 21:56 121 12 gusting 28 7.2
2014-Nov-26 21:40 150 10 gusting 25 7.8
2014-Nov-26 21:25 183 10 gusting 29 7.8
2014-Nov-26 21:11 192 8 gusting 24 7.2
2014-Nov-26 20:56 133 9 gusting 16 6.7
2014-Nov-26 20:41 127 13 gusting 22 6.7
2014-Nov-26 20:26 122 16 gusting 30 7.2
2014-Nov-26 20:09 117 16 gusting 33 7.2
2014-Nov-26 19:54 112 17 gusting 32 7.2
2014-Nov-26 19:39 145 18 gusting 33 7.2
2014-Nov-26 19:25 138 14 gusting 24 6.7
2014-Nov-26 19:10 101 12 gusting 19 6.7
2014-Nov-26 18:54 119 13 gusting 26 6.7
2014-Nov-26 18:38 112 18 gusting 23 6.7
2014-Nov-26 18:23 131 12 gusting 27 7.2
2014-Nov-26 18:08 103 16 gusting 27 7.2
2014-Nov-26 17:53 119 12 gusting 23 6.7
2014-Nov-26 17:38 105 13 gusting 24 6.7
2014-Nov-26 17:22 125 15 gusting 26 6.7
2014-Nov-26 17:07 143 12 gusting 21 6.7
2014-Nov-26 16:52 117 14 gusting 23 6.7
2014-Nov-26 16:37 132 13 gusting 22 6.7
2014-Nov-26 16:22 111 12 gusting 26 6.7
2014-Nov-26 16:07 111 15 gusting 25 6.7
2014-Nov-26 15:52 111 15 gusting 31 6.7
2014-Nov-26 15:36 123 16 gusting 28 6.7
2014-Nov-26 15:21 112 18 gusting 29 6.7
2014-Nov-26 15:06 122 17 gusting 26 6.7
2014-Nov-26 14:51 103 18 gusting 31 6.7
2014-Nov-26 14:36 144 16 gusting 27 6.7
2014-Nov-26 14:21 115 11 gusting 29 6.7
2014-Nov-26 14:06 142 19 gusting 36 6.7
2014-Nov-26 13:51 110 13 gusting 22 6.7
2014-Nov-26 13:35 125 17 gusting 31 6.7
2014-Nov-26 13:06 114 19 gusting 35 6.7
2014-Nov-26 12:49 131 19 gusting 36 6.7
2014-Nov-26 12:34 121 20 gusting 36 6.7
2014-Nov-26 12:19 123 19 gusting 35 6.7
2014-Nov-26 12:05 152 15 gusting 33 6.7
2014-Nov-26 11:49 114 14 gusting 27 6.7
2014-Nov-26 11:34 142 19 gusting 29 6.1
2014-Nov-26 11:18 137 19 gusting 32 6.1
2014-Nov-26 11:03 154 22 gusting 33 6.7
2014-Nov-26 10:48 121 15 gusting 34 6.1
2014-Nov-26 10:33 103 16 gusting 31 6.1
2014-Nov-26 10:18 119 13 gusting 25 5.6
2014-Nov-26 10:03 111 12 gusting 25 5.6
2014-Nov-26 09:47 108 16 gusting 26 5.0
2014-Nov-26 09:32 103 19 gusting 26 5.0
2014-Nov-26 09:17 111 17 gusting 29 4.4
2014-Nov-26 09:04 108 13 gusting 31 4.4
2014-Nov-26 08:47 115 17 gusting 30 4.4
2014-Nov-26 08:31 108 19 gusting 28 4.4
2014-Nov-26 08:16 108 11 gusting 24 4.4
2014-Nov-26 08:01 105 13 gusting 23 3.9
2014-Nov-26 07:46 109 11 gusting 20 3.9
2014-Nov-26 07:31 104 9 gusting 19 3.9
2014-Nov-26 07:16 103 7 gusting 16 3.9
2014-Nov-26 07:01 103 7 gusting 14 3.9
2014-Nov-26 06:45 104 6 gusting 19 3.3
2014-Nov-26 06:30 105 8 gusting 16 3.3
2014-Nov-26 06:15 106 6 gusting 14 3.3
2014-Nov-26 06:00 109 10 gusting 19 3.3
2014-Nov-26 05:44 111 6 gusting 15 3.9
2014-Nov-26 05:29 112 7 gusting 18 3.3
2014-Nov-26 05:14 104 7 gusting 16 3.3
2014-Nov-26 04:59 105 6 gusting 16 3.3
2014-Nov-26 04:44 105 6 gusting 16 3.3
2014-Nov-26 04:29 105 3 gusting 14 3.3
2014-Nov-26 04:13 105 4 gusting 13 3.3
2014-Nov-26 03:58 105 6 gusting 13 3.3
2014-Nov-26 03:44 107 8 gusting 15 3.3
2014-Nov-26 03:28 108 5 gusting 16 3.3
2014-Nov-26 03:13 106 6 gusting 14 3.3
2014-Nov-26 02:58 106 2 gusting 12 3.3
2014-Nov-26 02:42 106 6 gusting 11 3.3
2014-Nov-26 02:27 106 3.3
2014-Nov-26 02:12 106 1 gusting 10 3.3
2014-Nov-26 01:57 106 1 gusting 7 3.3
2014-Nov-26 01:42 106 3 gusting 11 3.3
2014-Nov-26 01:27 106 2 gusting 11 3.3
2014-Nov-26 01:11 106 0 gusting 8 3.3
2014-Nov-26 00:56 106 0 gusting 6 3.3
2014-Nov-26 00:41 106 2 gusting 9 3.3
2014-Nov-26 00:26 106 1 gusting 7 3.9
2014-Nov-26 00:11 106 1 gusting 8 3.9
2014-Nov-25 23:56 106 1 gusting 9 3.9
2014-Nov-25 23:40 106 1 gusting 14 3.9
2014-Nov-25 23:25 106 6 gusting 13 3.9
2014-Nov-25 23:10 106 6 gusting 13 3.9
2014-Nov-25 22:56 106 6 gusting 10 3.9
2014-Nov-25 22:40 106 0 gusting 7 3.9
2014-Nov-25 22:25 106 0 gusting 7 3.9
2014-Nov-25 22:10 106 3.9
2014-Nov-25 21:54 106 1 gusting 7 4.4
2014-Nov-25 21:39 106 4.4
2014-Nov-25 21:24 106 1 gusting 7 4.4
2014-Nov-25 21:09 106 6 gusting 9 4.4
2014-Nov-25 20:55 106 4.4
2014-Nov-25 20:38 106 2 gusting 7 5.0
2014-Nov-25 20:23 106 5.0
2014-Nov-25 20:08 106 4 gusting 10 5.0
2014-Nov-25 19:53 106 0 gusting 6 5.0
2014-Nov-25 19:38 106 5.0
2014-Nov-25 19:23 106 0 gusting 7 5.0
2014-Nov-25 19:07 106 5 gusting 11 5.0
2014-Nov-25 18:52 106 4 gusting 10 5.0
2014-Nov-25 18:37 106 6 gusting 11 5.0
2014-Nov-25 18:22 106 7 gusting 16 5.0
2014-Nov-25 18:07 105 9 gusting 13 5.6